Time;durP1;ratioP1;P1;durP2;ratioP2;P2;SDS_P1;SDS_P2;PMS_P1;PMS_P2;Temp;Humidity;BMP_temperature;BMP_pressure;BME280_temperature;BME280_humidity;BME280_pressure;Samples;Min_cycle;Max_cycle;Signal;HPM_P1;HPM_P2
2021/08/17 00:01:58;;;;;;;9.77;2.85;;;;;;;23.34;60.54;100771.00;5114820;27;20048;-72
2021/08/17 00:04:26;;;;;;;8.93;2.45;;;;;;;23.29;60.70;100773.00;5114907;27;20752;-71
2021/08/17 00:06:54;;;;;;;6.68;2.88;;;;;;;23.11;61.21;100768.25;5114145;28;20035;-72
2021/08/17 00:09:22;;;;;;;6.63;2.63;;;;;;;23.18;60.96;100761.72;5115300;28;20043;-71
2021/08/17 00:11:50;;;;;;;10.10;3.10;;;;;;;23.25;60.72;100776.72;5115485;28;20034;-71
2021/08/17 00:14:17;;;;;;;12.20;3.60;;;;;;;23.24;60.81;100763.28;5115056;28;20047;-72
2021/08/17 00:16:45;;;;;;;7.97;3.08;;;;;;;23.19;61.14;100766.16;5115093;28;20036;-72
2021/08/17 00:19:12;;;;;;;7.72;2.78;;;;;;;23.19;61.16;100770.66;5115162;28;20051;-71
2021/08/17 00:21:40;;;;;;;9.18;2.88;;;;;;;22.96;62.08;100769.69;5115057;28;20044;-71
2021/08/17 00:24:09;;;;;;;8.65;3.15;;;;;;;22.97;62.13;100765.19;5114904;27;20044;-71
2021/08/17 00:26:37;;;;;;;9.95;3.05;;;;;;;22.88;62.43;100769.06;5115130;27;20506;-70
2021/08/17 00:29:04;;;;;;;12.80;2.90;;;;;;;22.95;62.27;100767.06;5112161;28;20089;-71
2021/08/17 00:31:32;;;;;;;7.20;2.90;;;;;;;22.93;62.11;100768.91;5115119;28;20051;-71
2021/08/17 00:33:59;;;;;;;8.02;2.90;;;;;;;22.88;62.37;100770.88;5115106;28;20043;-71
2021/08/17 00:36:29;;;;;;;8.73;2.38;;;;;;;22.94;62.16;100765.28;5114887;27;20116;-72
2021/08/17 00:38:56;;;;;;;8.73;2.40;;;;;;;22.99;61.87;100766.00;5114943;27;20376;-71
2021/08/17 00:41:25;;;;;;;10.50;3.28;;;;;;;22.86;62.03;100764.66;5114737;28;20055;-71
2021/08/17 00:43:53;;;;;;;8.40;2.95;;;;;;;22.75;62.41;100772.25;5114794;28;20036;-71
2021/08/17 00:46:23;;;;;;;7.07;2.55;;;;;;;22.83;62.41;100762.97;5114532;28;20401;-71
2021/08/17 00:48:50;;;;;;;9.75;3.50;;;;;;;22.81;62.37;100764.84;5114412;28;20039;-71
2021/08/17 00:51:18;;;;;;;7.78;2.63;;;;;;;22.73;62.54;100766.91;5114622;28;20056;-72
2021/08/17 00:53:46;;;;;;;8.02;2.60;;;;;;;22.83;62.16;100765.66;5114846;28;20080;-71
2021/08/17 00:56:37;;;;;;;11.25;2.85;;;;;;;22.85;62.25;100768.28;5105049;27;20044;-71
2021/08/17 00:59:05;;;;;;;7.10;2.78;;;;;;;22.92;62.06;100765.31;5114359;28;20403;-72
2021/08/17 01:01:32;;;;;;;10.77;2.80;;;;;;;22.77;62.30;100760.50;5113797;28;20051;-71
2021/08/17 01:04:00;;;;;;;9.20;3.08;;;;;;;22.77;62.39;100760.50;5113548;28;20048;-71
2021/08/17 01:06:27;;;;;;;10.07;2.55;;;;;;;22.87;62.15;100759.22;5113333;27;20464;-71
2021/08/17 01:08:55;;;;;;;5.90;2.50;;;;;;;22.93;62.02;100756.31;5113283;28;20164;-72
2021/08/17 01:11:22;;;;;;;10.27;2.90;;;;;;;22.77;62.27;100755.13;5113568;27;20031;-71
2021/08/17 01:13:52;;;;;;;9.75;2.90;;;;;;;22.74;62.54;100749.81;5113651;28;20036;-72
2021/08/17 01:16:19;;;;;;;9.15;3.03;;;;;;;22.82;62.30;100747.75;5114044;27;20054;-72
2021/08/17 01:18:47;;;;;;;9.60;3.15;;;;;;;22.79;62.31;100746.97;5114178;28;20198;-71
2021/08/17 01:21:14;;;;;;;10.88;3.20;;;;;;;22.64;62.68;100745.69;5110575;27;20055;-72
2021/08/17 01:23:42;;;;;;;6.72;2.80;;;;;;;22.63;62.59;100750.19;5113990;28;20036;-71
2021/08/17 01:26:11;;;;;;;7.95;2.60;;;;;;;22.59;62.86;100744.94;5113967;28;20487;-72
2021/08/17 01:28:38;;;;;;;7.93;2.60;;;;;;;22.60;62.60;100741.31;5113982;28;20032;-71
2021/08/17 01:31:07;;;;;;;7.90;2.60;;;;;;;22.61;62.43;100740.38;5113378;28;20039;-72
2021/08/17 01:33:36;;;;;;;9.98;2.78;;;;;;;22.63;62.52;100743.91;5113558;27;20046;-72
2021/08/17 01:36:04;;;;;;;6.40;2.33;;;;;;;22.40;63.03;100741.09;5113678;28;20399;-71
2021/08/17 01:38:32;;;;;;;12.07;2.75;;;;;;;22.34;63.32;100741.31;5113534;27;20124;-71
2021/08/17 01:40:59;;;;;;;11.98;2.90;;;;;;;22.34;63.34;100739.50;5113361;28;20422;-71
2021/08/17 01:43:28;;;;;;;7.47;2.85;;;;;;;22.42;63.21;100739.25;5113617;28;20617;-71
2021/08/17 01:45:57;;;;;;;10.55;3.30;;;;;;;22.45;62.92;100736.47;5113861;27;20040;-72
2021/08/17 01:48:27;;;;;;;7.82;2.63;;;;;;;22.43;62.98;100736.50;5113345;28;20498;-71
2021/08/17 01:50:54;;;;;;;9.77;2.50;;;;;;;22.44;62.86;100735.59;5113596;28;20032;-71
2021/08/17 01:53:23;;;;;;;6.15;2.60;;;;;;;22.39;63.01;100728.56;5113508;28;20032;-72
2021/08/17 01:55:51;;;;;;;9.20;2.50;;;;;;;22.36;62.88;100726.00;5113238;27;20047;-72
2021/08/17 01:58:19;;;;;;;9.45;2.67;;;;;;;22.31;63.05;100727.97;5113077;28;20039;-71
2021/08/17 02:00:49;;;;;;;7.65;3.15;;;;;;;22.34;63.13;100730.53;5112826;28;20050;-71
2021/08/17 02:03:16;;;;;;;7.72;2.50;;;;;;;22.18;63.54;100720.31;5112637;27;20039;-72
2021/08/17 02:05:44;;;;;;;8.52;2.58;;;;;;;22.10;63.79;100722.38;5112620;28;20036;-72
2021/08/17 02:08:12;;;;;;;7.30;2.70;;;;;;;22.15;63.64;100719.50;5111779;28;20111;-71
2021/08/17 02:10:41;;;;;;;9.15;2.63;;;;;;;22.18;63.52;100725.69;5112831;27;20096;-72
2021/08/17 02:13:29;;;;;;;8.98;2.97;;;;;;;22.14;63.58;100713.25;5107842;28;20043;-71
2021/08/17 02:16:00;;;;;;;7.55;2.72;;;;;;;22.09;63.79;100720.59;5111991;27;20426;-72
2021/08/17 02:18:27;;;;;;;7.25;2.55;;;;;;;21.91;64.06;100721.16;5112533;28;20039;-72
2021/08/17 02:20:55;;;;;;;7.95;3.50;;;;;;;21.86;64.45;100713.22;5112588;28;20395;-71
2021/08/17 02:23:22;;;;;;;7.00;2.42;;;;;;;21.89;64.04;100720.31;5112732;27;20047;-72
2021/08/17 02:25:50;;;;;;;7.80;2.80;;;;;;;21.90;64.12;100716.72;5112793;28;20040;-72
2021/08/17 02:28:19;;;;;;;7.63;3.00;;;;;;;21.90;64.06;100721.22;5112973;28;20043;-71
2021/08/17 02:30:46;;;;;;;7.63;2.72;;;;;;;21.94;63.84;100712.09;5111326;28;20039;-72
2021/08/17 02:33:15;;;;;;;11.38;2.92;;;;;;;21.85;63.97;100718.69;5112875;28;20043;-71
2021/08/17 02:35:44;;;;;;;7.18;2.85;;;;;;;21.73;64.45;100727.09;5112227;28;20601;-71
2021/08/17 02:38:14;;;;;;;6.78;2.58;;;;;;;21.70;64.53;100720.03;5112438;27;20043;-72
2021/08/17 02:40:42;;;;;;;7.68;2.90;;;;;;;21.79;64.45;100719.72;5112748;27;20043;-72
2021/08/17 02:43:09;;;;;;;11.02;3.10;;;;;;;21.69;64.29;100717.38;5107304;28;20088;-72
2021/08/17 02:45:37;;;;;;;6.38;2.72;;;;;;;21.66;64.47;100714.81;5112548;27;20039;-68
2021/08/17 02:48:05;;;;;;;11.13;3.17;;;;;;;21.75;64.35;100725.25;5111354;28;20095;-71
2021/08/17 02:50:37;;;;;;;8.80;2.88;;;;;;;21.74;64.30;100720.78;5112429;28;20046;-72
2021/08/17 02:53:04;;;;;;;11.30;3.67;;;;;;;21.64;64.46;100725.59;5112702;27;20054;-72
2021/08/17 02:55:32;;;;;;;6.93;2.67;;;;;;;21.65;64.60;100724.66;5112474;28;20040;-72
2021/08/17 02:58:05;;;;;;;8.25;2.92;;;;;;;21.66;64.62;100723.72;5110520;28;20050;-71
2021/08/17 03:00:34;;;;;;;12.35;3.08;;;;;;;21.64;64.60;100730.06;5112481;28;20047;-72
2021/08/17 03:03:01;;;;;;;10.82;3.28;;;;;;;21.50;65.02;100724.22;5111799;28;20039;-72
2021/08/17 03:05:28;;;;;;;7.75;2.60;;;;;;;21.44;65.26;100726.19;5111915;27;20043;-72
2021/08/17 03:08:02;;;;;;;10.45;3.10;;;;;;;21.40;65.51;100729.88;5112324;28;20047;-71
2021/08/17 03:10:30;;;;;;;5.63;2.70;;;;;;;21.43;65.40;100724.41;5112146;28;20484;-72
2021/08/17 03:12:58;;;;;;;9.68;3.58;;;;;;;21.36;65.54;100727.31;5112102;28;20048;-72
2021/08/17 03:15:25;;;;;;;9.13;3.63;;;;;;;21.42;65.24;100733.41;5112185;28;20047;-72
2021/08/17 03:17:53;;;;;;;10.73;2.67;;;;;;;21.36;64.99;100735.38;5110439;28;20039;-72
2021/08/17 03:20:20;;;;;;;7.93;2.72;;;;;;;21.34;64.97;100734.53;5111926;28;20047;-71
2021/08/17 03:22:48;;;;;;;12.10;3.55;;;;;;;21.36;64.99;100728.22;5111896;28;20050;-72
2021/08/17 03:25:17;;;;;;;6.88;2.97;;;;;;;21.31;65.10;100732.84;5111897;28;20039;-71
2021/08/17 03:27:44;;;;;;;7.25;2.95;;;;;;;21.30;64.73;100738.25;5111340;28;20165;-71
2021/08/17 03:30:14;;;;;;;8.52;3.10;;;;;;;21.34;64.60;100738.09;5111287;28;20043;-71
2021/08/17 03:32:42;;;;;;;8.90;2.92;;;;;;;21.32;64.26;100737.28;5112100;28;20043;-72
2021/08/17 03:35:11;;;;;;;8.07;2.72;;;;;;;21.13;65.05;100741.41;5109714;28;20046;-71
2021/08/17 03:37:39;;;;;;;9.05;2.58;;;;;;;21.12;64.92;100742.31;5111565;28;20039;-70
2021/08/17 03:40:08;;;;;;;8.60;2.97;;;;;;;21.11;64.71;100731.59;5111965;28;20040;-71
2021/08/17 03:42:38;;;;;;;7.78;3.05;;;;;;;21.18;64.63;100741.28;5111857;28;20032;-72
2021/08/17 03:45:06;;;;;;;11.10;3.17;;;;;;;21.08;64.82;100738.81;5111849;28;20054;-72
2021/08/17 03:47:34;;;;;;;6.65;2.35;;;;;;;21.09;64.43;100737.00;5111836;28;20050;-72
2021/08/17 03:50:01;;;;;;;9.48;3.13;;;;;;;21.14;63.98;100735.06;5109199;28;20040;-73
2021/08/17 03:52:28;;;;;;;6.68;2.90;;;;;;;21.21;63.68;100733.13;5111620;28;20057;-72
2021/08/17 03:54:56;;;;;;;9.30;2.67;;;;;;;21.24;63.79;100733.94;5111680;28;20410;-72
2021/08/17 03:57:24;;;;;;;7.45;2.55;;;;;;;21.30;64.08;100733.75;5111549;28;20039;-72
2021/08/17 03:59:55;;;;;;;6.55;2.33;;;;;;;21.39;64.33;100733.50;5111530;28;20034;-72
2021/08/17 04:02:22;;;;;;;7.07;2.40;;;;;;;21.47;64.10;100735.94;5111164;28;20043;-72
2021/08/17 04:04:49;;;;;;;7.45;2.47;;;;;;;21.62;63.05;100732.81;5109298;28;20052;-73
2021/08/17 04:07:17;;;;;;;4.50;1.85;;;;;;;21.70;62.63;100735.25;5111689;28;20050;-72
2021/08/17 04:09:44;;;;;;;5.28;1.83;;;;;;;21.75;62.27;100736.00;5111303;28;20055;-72
2021/08/17 04:12:12;;;;;;;7.85;2.40;;;;;;;21.93;61.97;100739.91;5111536;28;20036;-71
2021/08/17 04:14:39;;;;;;;5.68;2.17;;;;;;;22.09;62.22;100735.84;5111570;28;20039;-71
2021/08/17 04:17:08;;;;;;;11.23;2.70;;;;;;;22.18;61.99;100735.56;5111797;28;20059;-72
2021/08/17 04:19:53;;;;;;;6.82;2.05;;;;;;;22.34;62.13;100730.53;5110608;28;20122;-72
2021/08/17 04:22:21;;;;;;;6.30;2.10;;;;;;;22.53;61.43;100734.38;5111129;28;20035;-72
2021/08/17 04:24:49;;;;;;;5.05;1.92;;;;;;;22.74;61.42;100739.06;5111499;28;20478;-71
2021/08/17 04:27:16;;;;;;;8.20;2.20;;;;;;;22.87;61.49;100740.38;5111353;28;20047;-71
2021/08/17 04:29:44;;;;;;;7.78;1.73;;;;;;;23.01;61.15;100740.78;5112806;28;20403;-71
2021/08/17 04:32:14;;;;;;;6.93;2.13;;;;;;;23.17;60.25;100741.09;5115287;28;20123;-72
2021/08/17 04:34:42;;;;;;;9.23;2.00;;;;;;;23.36;59.64;100735.94;5115165;27;20040;-72
2021/08/17 04:37:23;;;;;;;9.35;2.40;;;;;;;23.52;59.49;100742.50;5114565;28;20540;-73
2021/08/17 04:39:50;;;;;;;8.43;2.03;;;;;;;23.64;59.30;100741.16;5115083;27;20043;-71
2021/08/17 04:42:18;;;;;;;10.32;2.33;;;;;;;23.80;59.06;100737.81;5115019;28;20048;-73
2021/08/17 04:45:07;;;;;;;6.45;2.10;;;;;;;23.97;59.39;100745.22;5107022;28;20044;-72
2021/08/17 04:47:36;;;;;;;9.70;2.08;;;;;;;24.19;58.97;100742.59;5114855;27;20483;-72
2021/08/17 04:50:03;;;;;;;5.28;2.10;;;;;;;24.38;58.49;100746.28;5114657;28;20043;-72
2021/08/17 04:52:31;;;;;;;5.47;1.88;;;;;;;24.59;57.83;100739.09;5114161;27;20048;-73
2021/08/17 04:54:58;;;;;;;5.15;1.75;;;;;;;24.73;57.59;100746.63;5114205;28;20134;-73
2021/08/17 04:57:26;;;;;;;5.50;1.50;;;;;;;24.95;57.04;100745.63;5114549;27;20040;-73
2021/08/17 04:59:53;;;;;;;5.80;1.77;;;;;;;25.17;56.50;100745.56;5114604;27;20035;-73
2021/08/17 05:02:21;;;;;;;5.40;2.00;;;;;;;25.38;55.79;100741.03;5114406;27;20054;-73
2021/08/17 05:04:49;;;;;;;5.68;1.23;;;;;;;25.63;55.79;100747.06;5114356;27;20035;-73
2021/08/17 05:07:37;;;;;;;7.10;1.90;;;;;;;25.87;55.31;100750.44;5105617;28;20046;-73
2021/08/17 05:10:07;;;;;;;7.68;1.80;;;;;;;26.07;54.60;100744.94;5114199;27;20051;-73
2021/08/17 05:12:35;;;;;;;5.20;1.65;;;;;;;26.33;53.30;100751.81;5114013;27;20043;-73
2021/08/17 05:15:03;;;;;;;7.43;1.90;;;;;;;26.61;51.72;100753.13;5111815;27;20043;-72
2021/08/17 05:17:30;;;;;;;4.18;1.85;;;;;;;26.88;51.13;100752.59;5114326;27;20042;-74
2021/08/17 05:20:00;;;;;;;9.30;1.98;;;;;;;27.22;49.71;100746.31;5114222;28;20059;-73
2021/08/17 05:22:28;;;;;;;9.25;1.90;;;;;;;27.50;48.62;100747.53;5114209;28;20048;-73
2021/08/17 05:24:55;;;;;;;16.70;2.10;;;;;;;27.73;47.08;100753.47;5112579;27;20403;-73
2021/08/17 05:27:23;;;;;;;17.85;2.40;;;;;;;27.93;47.00;100757.78;5114191;28;20050;-73
2021/08/17 05:29:52;;;;;;;17.75;2.80;;;;;;;28.14;44.83;100750.28;5114302;28;20367;-73
2021/08/17 05:32:40;;;;;;;18.05;3.22;;;;;;;28.41;44.25;100748.69;5103971;28;20062;-72
2021/08/17 05:35:10;;;;;;;11.60;2.00;;;;;;;28.72;43.38;100760.47;5114398;28;20044;-73
2021/08/17 05:37:38;;;;;;;8.73;1.80;;;;;;;28.96;41.92;100755.41;5113885;28;20085;-73
2021/08/17 05:40:07;;;;;;;8.52;1.85;;;;;;;29.17;40.30;100752.25;5113570;28;20051;-73
2021/08/17 05:42:34;;;;;;;5.75;1.70;;;;;;;29.41;38.90;100751.72;5112399;27;20368;-73
2021/08/17 05:45:03;;;;;;;3.42;1.35;;;;;;;29.61;37.44;100751.34;5112937;28;20106;-73
2021/08/17 05:47:31;;;;;;;7.75;1.83;;;;;;;29.88;37.56;100760.47;5113422;28;20136;-72
2021/08/17 05:49:58;;;;;;;4.93;1.10;;;;;;;30.15;36.35;100762.41;5113367;28;20097;-72
2021/08/17 05:52:29;;;;;;;5.07;1.65;;;;;;;30.41;34.97;100764.28;5113527;27;20049;-72
2021/08/17 05:54:56;;;;;;;2.58;1.30;;;;;;;30.51;34.09;100764.59;5113390;28;20035;-72
2021/08/17 05:57:24;;;;;;;6.55;1.65;;;;;;;30.75;32.85;100761.06;5111902;28;20044;-72
2021/08/17 05:59:51;;;;;;;4.32;1.60;;;;;;;31.01;33.29;100769.28;5113508;27;20047;-71
2021/08/17 06:02:19;;;;;;;8.38;1.77;;;;;;;31.22;32.45;100762.38;5112268;28;20139;-72
2021/08/17 06:04:53;;;;;;;7.00;1.52;;;;;;;31.26;32.43;100767.50;5112864;28;20078;-73
2021/08/17 06:07:21;;;;;;;3.15;1.67;;;;;;;31.39;32.67;100775.69;5113208;28;20051;-71
2021/08/17 06:09:51;;;;;;;5.07;1.63;;;;;;;31.66;31.37;100771.03;5113086;28;20044;-72
2021/08/17 06:12:18;;;;;;;4.35;1.50;;;;;;;31.87;30.60;100774.06;5113002;27;20039;-72
2021/08/17 06:14:45;;;;;;;3.25;1.50;;;;;;;32.05;30.08;100769.09;5112820;28;20383;-72
2021/08/17 06:17:13;;;;;;;6.07;1.50;;;;;;;32.01;28.69;100773.94;5113012;28;20522;-72
2021/08/17 06:19:40;;;;;;;2.78;1.30;;;;;;;32.11;28.81;100771.38;5112846;27;20036;-71
2021/08/17 06:22:07;;;;;;;10.25;1.73;;;;;;;32.28;28.36;100775.63;5113057;28;20048;-73
2021/08/17 06:24:34;;;;;;;5.95;1.63;;;;;;;32.52;28.06;100776.53;5112868;28;20047;-73
2021/08/17 06:27:04;;;;;;;6.88;1.58;;;;;;;32.64;28.17;100777.44;5111139;27;20051;-73
2021/08/17 06:29:31;;;;;;;2.78;1.40;;;;;;;32.75;27.87;100777.56;5112418;28;20035;-73
2021/08/17 06:31:59;;;;;;;3.88;1.48;;;;;;;32.94;27.05;100777.00;5112509;28;20048;-72
2021/08/17 06:34:26;;;;;;;5.68;1.58;;;;;;;33.01;26.60;100784.63;5112063;27;20050;-72
2021/08/17 06:36:54;;;;;;;5.43;1.52;;;;;;;33.19;26.86;100775.00;5112279;28;20398;-71
2021/08/17 06:39:21;;;;;;;3.22;1.13;;;;;;;33.36;26.39;100781.88;5112396;28;20054;-70
2021/08/17 06:41:49;;;;;;;5.43;1.55;;;;;;;33.45;26.38;100785.75;5112541;28;20035;-71
2021/08/17 06:44:18;;;;;;;5.60;1.40;;;;;;;33.40;26.66;100793.47;5112125;28;20050;-71
2021/08/17 06:46:46;;;;;;;5.47;1.67;;;;;;;33.47;27.24;100794.72;5112196;28;20036;-72
2021/08/17 06:49:13;;;;;;;4.43;1.80;;;;;;;33.60;27.29;100790.00;5112494;28;20043;-72
2021/08/17 06:51:40;;;;;;;4.57;1.60;;;;;;;33.62;27.39;100796.22;5112538;28;20039;-71
2021/08/17 06:54:08;;;;;;;5.32;1.45;;;;;;;33.72;27.78;100797.28;5105070;28;20043;-71
2021/08/17 06:56:35;;;;;;;5.90;1.70;;;;;;;33.92;27.52;100793.78;5112136;28;20039;-71
2021/08/17 06:59:02;;;;;;;3.70;1.63;;;;;;;34.04;28.03;100791.91;5112049;27;20036;-71
2021/08/17 07:01:31;;;;;;;5.05;1.60;;;;;;;34.17;28.13;100792.66;5112293;28;20032;-72
2021/08/17 07:03:59;;;;;;;10.35;1.80;;;;;;;34.15;27.70;100797.38;5111558;28;21467;-73
2021/08/17 07:06:28;;;;;;;5.00;1.92;;;;;;;34.18;27.94;100801.75;5111705;28;20055;-73
2021/08/17 07:08:55;;;;;;;4.85;1.60;;;;;;;34.28;27.18;100805.47;5110330;28;20047;-72
2021/08/17 07:11:23;;;;;;;5.00;1.40;;;;;;;34.38;27.09;100809.22;5111491;28;20093;-72
2021/08/17 07:13:50;;;;;;;6.53;1.85;;;;;;;34.48;26.78;100809.31;5111752;28;20054;-72
2021/08/17 07:16:19;;;;;;;4.85;1.63;;;;;;;34.53;27.16;100807.06;5111696;28;20071;-72
2021/08/17 07:18:48;;;;;;;3.67;1.70;;;;;;;34.63;27.53;100803.41;5111751;28;20410;-72
2021/08/17 07:21:15;;;;;;;4.28;1.80;;;;;;;34.70;27.81;100799.16;5111974;28;20497;-71
2021/08/17 07:23:42;;;;;;;7.15;1.50;;;;;;;34.63;27.63;100810.78;5111988;28;20039;-72
2021/08/17 07:26:10;;;;;;;7.85;1.80;;;;;;;34.61;28.36;100801.78;5111938;28;20040;-72
2021/08/17 07:28:37;;;;;;;5.90;1.83;;;;;;;34.86;28.52;100817.06;5109104;28;20417;-72
2021/08/17 07:31:04;;;;;;;3.85;1.27;;;;;;;34.85;28.71;100812.63;5111537;28;20044;-73
2021/08/17 07:33:32;;;;;;;3.08;1.45;;;;;;;34.81;29.29;100822.09;5111608;28;20054;-72
2021/08/17 07:36:01;;;;;;;4.28;1.90;;;;;;;34.79;29.92;100823.09;5112065;28;20051;-72
2021/08/17 07:38:28;;;;;;;5.53;2.33;;;;;;;34.68;30.65;100814.00;5111888;28;20051;-73
2021/08/17 07:41:13;;;;;;;3.85;1.85;;;;;;;34.90;30.57;100810.34;5111443;28;20051;-72
2021/08/17 07:43:40;;;;;;;5.28;2.00;;;;;;;35.10;30.76;100804.88;5111528;28;20048;-71
2021/08/17 07:46:07;;;;;;;4.28;1.70;;;;;;;34.93;30.44;100804.56;5107377;28;20044;-72
2021/08/17 07:48:35;;;;;;;6.95;2.08;;;;;;;35.11;30.04;100812.13;5111992;28;20043;-73
2021/08/17 07:51:04;;;;;;;5.20;1.98;;;;;;;35.30;30.47;100805.94;5109290;28;20039;-73
2021/08/17 07:53:31;;;;;;;3.08;2.17;;;;;;;35.26;30.93;100812.69;5111847;28;20039;-73
2021/08/17 07:55:59;;;;;;;3.65;1.60;;;;;;;35.07;30.28;100807.00;5111673;28;20039;-73
2021/08/17 07:58:26;;;;;;;7.05;2.28;;;;;;;34.87;30.29;100810.59;5111562;28;20495;-73
2021/08/17 08:00:54;;;;;;;3.97;1.85;;;;;;;34.74;29.88;100811.63;5111428;28;20040;-72
2021/08/17 08:03:21;;;;;;;3.42;1.83;;;;;;;34.65;30.63;100806.91;5111547;28;20062;-73
2021/08/17 08:05:48;;;;;;;4.25;1.65;;;;;;;34.96;30.50;100807.06;5111781;27;20047;-72
2021/08/17 08:08:17;;;;;;;5.70;1.67;;;;;;;35.15;30.22;100812.72;5115151;27;20051;-73
2021/08/17 08:10:45;;;;;;;5.65;1.98;;;;;;;35.34;30.27;100817.50;5115376;28;20040;-73
2021/08/17 08:13:13;;;;;;;4.30;1.90;;;;;;;35.38;30.13;100808.03;5115459;27;20089;-72
2021/08/17 08:15:40;;;;;;;4.07;1.70;;;;;;;35.06;30.36;100808.00;5113959;27;20640;-71
2021/08/17 08:18:08;;;;;;;5.90;1.98;;;;;;;35.14;29.92;100808.22;5115789;28;20047;-72
2021/08/17 08:20:35;;;;;;;4.00;1.35;;;;;;;35.37;29.61;100815.38;5114123;27;20039;-73
2021/08/17 08:23:05;;;;;;;5.78;1.80;;;;;;;35.71;29.36;100818.78;5115351;28;20038;-73
2021/08/17 08:25:34;;;;;;;4.80;1.50;;;;;;;35.97;28.92;100820.06;5112475;28;20062;-72
2021/08/17 08:28:02;;;;;;;4.25;1.80;;;;;;;36.15;29.01;100824.94;5114556;27;20046;-73
2021/08/17 08:30:29;;;;;;;7.93;2.17;;;;;;;36.31;28.96;100811.53;5115125;27;20040;-73
2021/08/17 08:32:56;;;;;;;3.50;2.05;;;;;;;36.45;29.53;100813.03;5114956;28;20032;-73
2021/08/17 08:35:24;;;;;;;5.30;2.00;;;;;;;36.49;29.89;100814.50;5113153;27;20051;-73
2021/08/17 08:37:56;;;;;;;6.28;1.65;;;;;;;36.56;29.68;100811.03;5113177;28;20036;-73
2021/08/17 08:40:25;;;;;;;5.50;2.33;;;;;;;36.45;30.20;100811.16;5114604;28;20046;-74
2021/08/17 08:42:55;;;;;;;8.27;2.53;;;;;;;36.12;30.95;100812.31;5113910;28;20032;-73
2021/08/17 08:45:22;;;;;;;6.57;2.25;;;;;;;35.99;31.14;100817.19;5113188;28;20043;-72
2021/08/17 08:47:57;;;;;;;7.72;2.72;;;;;;;35.86;31.17;100813.81;5114302;27;20084;-73
2021/08/17 08:50:24;;;;;;;5.63;2.20;;;;;;;36.12;30.70;100815.06;5114447;27;20048;-73
2021/08/17 08:52:51;;;;;;;5.40;2.22;;;;;;;36.37;30.80;100816.47;5114818;28;20561;-74
2021/08/17 08:55:19;;;;;;;3.60;1.70;;;;;;;36.27;31.20;100812.84;5113983;28;20051;-71
2021/08/17 08:57:48;;;;;;;5.60;2.13;;;;;;;35.61;32.24;100811.47;5113872;27;20034;-70
2021/08/17 09:00:19;;;;;;;6.05;2.00;;;;;;;35.35;32.38;100809.16;5113968;27;20050;-73
2021/08/17 09:02:46;;;;;;;7.80;1.88;;;;;;;35.45;32.21;100812.81;5114224;28;20043;-72
2021/08/17 09:05:14;;;;;;;2.80;1.58;;;;;;;35.58;31.65;100803.50;5114276;28;20047;-71
2021/08/17 09:07:58;;;;;;;4.78;2.00;;;;;;;35.86;31.46;100800.94;5114045;27;20040;-73
2021/08/17 09:10:27;;;;;;;4.07;1.80;;;;;;;36.13;31.03;100814.06;5114230;28;20044;-72
2021/08/17 09:12:56;;;;;;;4.00;1.80;;;;;;;36.06;30.89;100801.88;5113993;28;20051;-72
2021/08/17 09:15:30;;;;;;;6.88;2.22;;;;;;;36.19;30.51;100807.16;5113880;27;20043;-72
2021/08/17 09:18:00;;;;;;;5.95;1.98;;;;;;;36.35;30.31;100804.78;5113681;28;20492;-70
2021/08/17 09:20:33;;;;;;;3.88;2.08;;;;;;;36.51;30.45;100806.97;5114064;28;20044;-73
2021/08/17 09:23:20;;;;;;;5.60;2.05;;;;;;;36.70;30.42;100809.78;5114020;28;20043;-71
2021/08/17 09:25:48;;;;;;;3.60;1.80;;;;;;;36.75;30.02;100806.63;5113153;27;20047;-72
2021/08/17 09:28:29;;;;;;;5.57;1.95;;;;;;;36.91;29.51;100812.41;5114036;28;20050;-71
2021/08/17 09:30:59;;;;;;;5.07;1.80;;;;;;;36.75;29.53;100807.47;5112299;28;20050;-71
2021/08/17 09:33:41;;;;;;;4.25;1.80;;;;;;;36.56;29.13;100804.69;5113926;27;20051;-70
2021/08/17 09:36:10;;;;;;;5.75;2.40;;;;;;;36.57;29.44;100804.50;5112718;28;20039;-70
2021/08/17 09:38:37;;;;;;;4.80;2.17;;;;;;;36.64;28.69;100802.06;5113583;27;20047;-72
2021/08/17 09:41:20;;;;;;;7.57;1.90;;;;;;;36.82;28.30;100794.88;5113479;28;20402;-72
2021/08/17 09:43:58;;;;;;;5.60;1.87;;;;;;;36.33;30.21;100802.16;5112850;28;20039;-71
2021/08/17 09:46:30;;;;;;;7.50;2.25;;;;;;;36.00;31.10;100796.94;5113374;27;20304;-71
2021/08/17 09:48:58;;;;;;;5.50;1.70;;;;;;;36.03;31.74;100799.44;5113241;28;20031;-71
2021/08/17 09:51:33;;;;;;;3.75;1.80;;;;;;;36.05;31.87;100789.13;5113424;27;20048;-71
2021/08/17 09:54:15;;;;;;;5.07;1.95;;;;;;;36.17;30.32;100790.81;5113153;27;20036;-71
2021/08/17 09:56:44;;;;;;;7.82;2.67;;;;;;;35.90;31.49;100787.81;5112873;27;20509;-72
2021/08/17 09:59:20;;;;;;;4.82;2.30;;;;;;;36.02;31.10;100794.06;5112605;28;20035;-69
2021/08/17 10:01:49;;;;;;;6.55;2.38;;;;;;;35.67;32.06;100780.69;5112581;28;20028;-69
2021/08/17 10:04:16;;;;;;;5.07;2.15;;;;;;;35.38;32.01;100789.63;5113311;27;20047;-68
2021/08/17 10:06:44;;;;;;;7.88;2.15;;;;;;;35.16;31.85;100784.25;5113461;28;20039;-71
2021/08/17 10:09:30;;;;;;;6.38;2.10;;;;;;;35.51;31.94;100784.78;5113113;27;20135;-71
2021/08/17 10:11:58;;;;;;;4.15;1.92;;;;;;;35.62;32.37;100778.38;5113110;28;20387;-70
2021/08/17 10:14:25;;;;;;;6.78;2.10;;;;;;;35.34;32.97;100782.69;5111789;28;20051;-70
2021/08/17 10:16:54;;;;;;;5.07;2.03;;;;;;;35.28;32.72;100783.22;5112887;28;20050;-70
2021/08/17 10:19:27;;;;;;;3.95;1.98;;;;;;;35.32;32.95;100775.56;5113031;28;20047;-70
2021/08/17 10:21:57;;;;;;;4.72;2.17;;;;;;;35.14;33.23;100776.16;5112717;27;20387;-70
2021/08/17 10:24:29;;;;;;;7.18;2.30;;;;;;;34.74;33.86;100773.22;5109924;27;20052;-70
2021/08/17 10:27:21;;;;;;;5.72;2.22;;;;;;;34.65;33.77;100770.38;5112197;27;20032;-69
2021/08/17 10:30:01;;;;;;;4.38;2.00;;;;;;;34.41;34.50;100770.56;5112346;28;20035;-70
2021/08/17 10:32:55;;;;;;;4.45;2.22;;;;;;;34.31;34.46;100775.97;5112783;28;20048;-69
2021/08/17 10:35:56;;;;;;;5.32;2.33;;;;;;;34.26;33.82;100775.47;5111524;28;20411;-71
2021/08/17 10:38:53;;;;;;;5.93;2.75;;;;;;;34.24;34.24;100766.50;5112215;28;20126;-72
2021/08/17 10:41:42;;;;;;;8.15;2.50;;;;;;;34.05;34.34;100760.75;5111987;28;20043;-74
2021/08/17 10:44:18;;;;;;;7.40;1.65;;;;;;;33.89;34.13;100774.84;5104058;28;20088;-72
2021/08/17 10:47:04;;;;;;;5.63;2.00;;;;;;;33.69;34.57;100766.47;5112066;28;20513;-71
2021/08/17 10:49:45;;;;;;;4.18;1.90;;;;;;;33.94;33.55;100760.75;5112061;28;20047;-72
2021/08/17 10:52:29;;;;;;;6.47;2.33;;;;;;;34.19;32.40;100759.63;5111099;28;20649;-69
2021/08/17 10:55:29;;;;;;;4.95;1.95;;;;;;;34.25;31.69;100749.06;5111645;28;20391;-73
2021/08/17 10:57:59;;;;;;;5.68;1.67;;;;;;;34.36;30.85;100762.72;5111686;28;20035;-73
2021/08/17 11:00:48;;;;;;;3.60;1.95;;;;;;;34.37;30.14;100752.63;5112079;27;20069;-72
2021/08/17 11:03:36;;;;;;;7.15;2.30;;;;;;;34.30;30.87;100751.41;5110978;27;20093;-73
2021/08/17 11:06:05;;;;;;;5.47;2.20;;;;;;;34.34;30.06;100744.66;5109635;27;20046;-72
2021/08/17 11:08:38;;;;;;;4.97;2.42;;;;;;;34.32;29.26;100749.41;5110732;28;20058;-73
2021/08/17 11:11:18;;;;;;;6.63;2.47;;;;;;;34.21;29.68;100749.38;5111739;28;20544;-73
2021/08/17 11:14:05;;;;;;;5.93;2.53;;;;;;;34.13;30.32;100750.03;5111619;28;20035;-72
2021/08/17 11:16:33;;;;;;;5.30;2.10;;;;;;;34.26;31.01;100747.19;5111992;28;20088;-73
2021/08/17 11:19:03;;;;;;;5.47;2.60;;;;;;;34.27;31.58;100746.16;5111432;28;20031;-76
2021/08/17 11:21:34;;;;;;;6.40;2.95;;;;;;;34.49;30.51;100735.13;5111809;28;20051;-73
2021/08/17 11:24:10;;;;;;;6.20;2.97;;;;;;;34.99;30.18;100738.16;5111742;28;20031;-74
2021/08/17 11:26:55;;;;;;;4.43;2.50;;;;;;;35.50;29.87;100741.00;5111441;28;20070;-77
2021/08/17 11:29:28;;;;;;;6.95;2.35;;;;;;;35.37;30.66;100734.84;5112025;28;20089;-76
2021/08/17 11:32:27;;;;;;;6.30;2.60;;;;;;;35.10;30.82;100740.88;5106197;28;20387;-75
2021/08/17 11:34:54;;;;;;;6.93;2.42;;;;;;;34.87;31.34;100733.75;5111557;28;20483;-75
2021/08/17 11:37:24;;;;;;;6.88;2.50;;;;;;;34.99;30.91;100739.03;5111910;28;20039;-74
2021/08/17 11:39:54;;;;;;;5.03;2.15;;;;;;;34.88;31.49;100730.00;5113817;28;20046;-77